sensor_id;sensor_type;location;lat;lon;timestamp;P1;durP1;ratioP1;P2;durP2;ratioP2
27618;SDS011;15039;50.830;4.730;2022-11-15T00:01:53;18.50;;;13.00;;
27618;SDS011;15039;50.830;4.730;2022-11-15T00:04:19;19.40;;;12.45;;
27618;SDS011;15039;50.830;4.730;2022-11-15T00:06:47;17.00;;;12.88;;
27618;SDS011;15039;50.830;4.730;2022-11-15T00:09:13;16.77;;;14.00;;
27618;SDS011;15039;50.830;4.730;2022-11-15T00:11:38;18.90;;;13.82;;
27618;SDS011;15039;50.830;4.730;2022-11-15T00:14:04;15.82;;;12.95;;
27618;SDS011;15039;50.830;4.730;2022-11-15T00:16:29;16.05;;;12.38;;
27618;SDS011;15039;50.830;4.730;2022-11-15T00:18:55;16.83;;;12.38;;
27618;SDS011;15039;50.830;4.730;2022-11-15T00:21:22;18.00;;;13.20;;
27618;SDS011;15039;50.830;4.730;2022-11-15T00:23:47;17.10;;;12.98;;
27618;SDS011;15039;50.830;4.730;2022-11-15T00:26:13;16.20;;;13.35;;
27618;SDS011;15039;50.830;4.730;2022-11-15T00:28:40;19.67;;;12.63;;
27618;SDS011;15039;50.830;4.730;2022-11-15T00:31:08;16.98;;;12.98;;
27618;SDS011;15039;50.830;4.730;2022-11-15T00:33:37;15.77;;;12.70;;
27618;SDS011;15039;50.830;4.730;2022-11-15T00:36:04;16.92;;;12.60;;
27618;SDS011;15039;50.830;4.730;2022-11-15T00:38:35;18.38;;;12.05;;
27618;SDS011;15039;50.830;4.730;2022-11-15T00:41:02;14.27;;;12.55;;
27618;SDS011;15039;50.830;4.730;2022-11-15T00:43:29;15.07;;;12.80;;
27618;SDS011;15039;50.830;4.730;2022-11-15T00:45:54;19.33;;;11.70;;
27618;SDS011;15039;50.830;4.730;2022-11-15T00:48:20;14.52;;;11.52;;
27618;SDS011;15039;50.830;4.730;2022-11-15T00:50:46;15.80;;;12.32;;
27618;SDS011;15039;50.830;4.730;2022-11-15T00:53:12;13.82;;;11.90;;
27618;SDS011;15039;50.830;4.730;2022-11-15T00:55:37;18.58;;;12.70;;
27618;SDS011;15039;50.830;4.730;2022-11-15T00:58:03;16.38;;;12.00;;
27618;SDS011;15039;50.830;4.730;2022-11-15T01:00:29;16.25;;;11.27;;
27618;SDS011;15039;50.830;4.730;2022-11-15T01:02:54;13.52;;;11.68;;
27618;SDS011;15039;50.830;4.730;2022-11-15T01:05:20;13.32;;;11.38;;
27618;SDS011;15039;50.830;4.730;2022-11-15T01:07:46;13.45;;;11.68;;
27618;SDS011;15039;50.830;4.730;2022-11-15T01:10:11;14.52;;;11.60;;
27618;SDS011;15039;50.830;4.730;2022-11-15T01:12:37;13.75;;;11.50;;
27618;SDS011;15039;50.830;4.730;2022-11-15T01:15:04;17.10;;;11.55;;
27618;SDS011;15039;50.830;4.730;2022-11-15T01:17:29;16.70;;;11.80;;
27618;SDS011;15039;50.830;4.730;2022-11-15T01:19:55;17.00;;;11.18;;
27618;SDS011;15039;50.830;4.730;2022-11-15T01:22:22;15.68;;;10.38;;
27618;SDS011;15039;50.830;4.730;2022-11-15T01:24:49;17.08;;;10.80;;
27618;SDS011;15039;50.830;4.730;2022-11-15T01:27:15;16.70;;;11.27;;
27618;SDS011;15039;50.830;4.730;2022-11-15T01:29:40;18.85;;;11.43;;
27618;SDS011;15039;50.830;4.730;2022-11-15T01:32:06;12.70;;;10.45;;
27618;SDS011;15039;50.830;4.730;2022-11-15T01:34:32;19.10;;;11.50;;
27618;SDS011;15039;50.830;4.730;2022-11-15T01:36:57;15.85;;;10.82;;
27618;SDS011;15039;50.830;4.730;2022-11-15T01:39:23;17.33;;;12.38;;
27618;SDS011;15039;50.830;4.730;2022-11-15T01:41:49;15.00;;;12.85;;
27618;SDS011;15039;50.830;4.730;2022-11-15T01:46:57;15.52;;;12.35;;
27618;SDS011;15039;50.830;4.730;2022-11-15T01:49:25;18.83;;;12.88;;
27618;SDS011;15039;50.830;4.730;2022-11-15T01:51:54;16.05;;;13.18;;
27618;SDS011;15039;50.830;4.730;2022-11-15T01:54:21;18.52;;;11.88;;
27618;SDS011;15039;50.830;4.730;2022-11-15T01:56:52;17.80;;;12.50;;
27618;SDS011;15039;50.830;4.730;2022-11-15T01:59:23;18.73;;;13.02;;
27618;SDS011;15039;50.830;4.730;2022-11-15T02:01:49;17.27;;;13.13;;
27618;SDS011;15039;50.830;4.730;2022-11-15T02:04:20;16.80;;;13.10;;
27618;SDS011;15039;50.830;4.730;2022-11-15T02:06:51;17.83;;;12.38;;
27618;SDS011;15039;50.830;4.730;2022-11-15T02:09:17;16.42;;;12.50;;
27618;SDS011;15039;50.830;4.730;2022-11-15T02:11:43;15.05;;;12.00;;
27618;SDS011;15039;50.830;4.730;2022-11-15T02:14:10;15.80;;;12.57;;
27618;SDS011;15039;50.830;4.730;2022-11-15T02:30:41;15.77;;;12.02;;
27618;SDS011;15039;50.830;4.730;2022-11-15T02:33:26;17.15;;;11.95;;
27618;SDS011;15039;50.830;4.730;2022-11-15T02:36:01;16.77;;;11.73;;
27618;SDS011;15039;50.830;4.730;2022-11-15T02:47:05;15.37;;;10.70;;
27618;SDS011;15039;50.830;4.730;2022-11-15T02:49:48;14.98;;;10.93;;
27618;SDS011;15039;50.830;4.730;2022-11-15T02:52:17;15.27;;;11.48;;
27618;SDS011;15039;50.830;4.730;2022-11-15T02:54:54;17.38;;;12.18;;
27618;SDS011;15039;50.830;4.730;2022-11-15T02:57:21;13.60;;;11.05;;
27618;SDS011;15039;50.830;4.730;2022-11-15T03:00:17;17.70;;;12.13;;
27618;SDS011;15039;50.830;4.730;2022-11-15T03:08:08;15.75;;;12.60;;
27618;SDS011;15039;50.830;4.730;2022-11-15T03:16:09;18.10;;;13.13;;
27618;SDS011;15039;50.830;4.730;2022-11-15T03:18:46;17.02;;;13.13;;
27618;SDS011;15039;50.830;4.730;2022-11-15T03:21:16;19.45;;;13.45;;
27618;SDS011;15039;50.830;4.730;2022-11-15T03:23:46;15.38;;;12.73;;
27618;SDS011;15039;50.830;4.730;2022-11-15T03:26:13;20.15;;;14.07;;
27618;SDS011;15039;50.830;4.730;2022-11-15T03:28:49;16.95;;;13.60;;
27618;SDS011;15039;50.830;4.730;2022-11-15T03:31:19;18.58;;;13.35;;
27618;SDS011;15039;50.830;4.730;2022-11-15T03:34:07;16.55;;;12.82;;
27618;SDS011;15039;50.830;4.730;2022-11-15T03:36:35;19.30;;;12.63;;
27618;SDS011;15039;50.830;4.730;2022-11-15T03:39:03;18.15;;;13.13;;
27618;SDS011;15039;50.830;4.730;2022-11-15T03:44:39;18.30;;;14.15;;
27618;SDS011;15039;50.830;4.730;2022-11-15T03:47:51;17.90;;;13.00;;
27618;SDS011;15039;50.830;4.730;2022-11-15T03:50:12;17.15;;;13.60;;
27618;SDS011;15039;50.830;4.730;2022-11-15T03:52:41;17.60;;;13.60;;
27618;SDS011;15039;50.830;4.730;2022-11-15T03:55:08;22.20;;;13.23;;
27618;SDS011;15039;50.830;4.730;2022-11-15T03:57:36;17.55;;;12.25;;
27618;SDS011;15039;50.830;4.730;2022-11-15T04:00:03;19.25;;;13.40;;
27618;SDS011;15039;50.830;4.730;2022-11-15T04:02:29;22.02;;;12.82;;
27618;SDS011;15039;50.830;4.730;2022-11-15T04:04:55;18.67;;;11.88;;
27618;SDS011;15039;50.830;4.730;2022-11-15T04:07:21;19.23;;;11.60;;
27618;SDS011;15039;50.830;4.730;2022-11-15T04:09:46;15.85;;;11.98;;
27618;SDS011;15039;50.830;4.730;2022-11-15T04:12:27;13.95;;;11.13;;
27618;SDS011;15039;50.830;4.730;2022-11-15T04:14:58;17.15;;;12.02;;
27618;SDS011;15039;50.830;4.730;2022-11-15T04:17:40;15.57;;;11.18;;
27618;SDS011;15039;50.830;4.730;2022-11-15T04:20:17;13.98;;;11.50;;
27618;SDS011;15039;50.830;4.730;2022-11-15T04:23:02;17.42;;;10.88;;
27618;SDS011;15039;50.830;4.730;2022-11-15T04:25:53;13.00;;;10.45;;
27618;SDS011;15039;50.830;4.730;2022-11-15T04:28:20;15.90;;;9.82;;
27618;SDS011;15039;50.830;4.730;2022-11-15T04:30:46;14.45;;;9.80;;
27618;SDS011;15039;50.830;4.730;2022-11-15T04:33:12;11.48;;;9.10;;
27618;SDS011;15039;50.830;4.730;2022-11-15T04:35:38;14.45;;;9.20;;
27618;SDS011;15039;50.830;4.730;2022-11-15T04:38:05;11.63;;;8.32;;
27618;SDS011;15039;50.830;4.730;2022-11-15T04:40:32;12.98;;;8.35;;
27618;SDS011;15039;50.830;4.730;2022-11-15T04:42:57;11.52;;;8.52;;
27618;SDS011;15039;50.830;4.730;2022-11-15T04:45:23;12.57;;;8.48;;
27618;SDS011;15039;50.830;4.730;2022-11-15T04:47:49;10.52;;;8.07;;
27618;SDS011;15039;50.830;4.730;2022-11-15T04:50:15;10.45;;;8.30;;
27618;SDS011;15039;50.830;4.730;2022-11-15T04:52:49;10.73;;;8.25;;
27618;SDS011;15039;50.830;4.730;2022-11-15T04:55:17;10.10;;;7.32;;
27618;SDS011;15039;50.830;4.730;2022-11-15T04:57:42;11.07;;;8.43;;
27618;SDS011;15039;50.830;4.730;2022-11-15T05:00:09;11.25;;;7.88;;
27618;SDS011;15039;50.830;4.730;2022-11-15T05:02:36;11.65;;;8.15;;
27618;SDS011;15039;50.830;4.730;2022-11-15T05:05:21;10.45;;;8.32;;
27618;SDS011;15039;50.830;4.730;2022-11-15T05:07:47;14.20;;;8.68;;
27618;SDS011;15039;50.830;4.730;2022-11-15T05:10:12;12.57;;;8.63;;
27618;SDS011;15039;50.830;4.730;2022-11-15T05:12:38;12.48;;;8.95;;
27618;SDS011;15039;50.830;4.730;2022-11-15T05:15:04;13.40;;;8.93;;
27618;SDS011;15039;50.830;4.730;2022-11-15T05:17:30;12.25;;;8.25;;
27618;SDS011;15039;50.830;4.730;2022-11-15T05:19:56;11.70;;;8.30;;
27618;SDS011;15039;50.830;4.730;2022-11-15T05:22:21;10.38;;;9.10;;
27618;SDS011;15039;50.830;4.730;2022-11-15T05:24:47;11.50;;;8.80;;
27618;SDS011;15039;50.830;4.730;2022-11-15T05:27:13;14.55;;;9.30;;
27618;SDS011;15039;50.830;4.730;2022-11-15T05:29:39;11.45;;;8.50;;
27618;SDS011;15039;50.830;4.730;2022-11-15T05:32:05;14.90;;;8.57;;
27618;SDS011;15039;50.830;4.730;2022-11-15T05:34:31;12.30;;;8.80;;
27618;SDS011;15039;50.830;4.730;2022-11-15T05:36:57;11.77;;;7.63;;
27618;SDS011;15039;50.830;4.730;2022-11-15T05:39:24;9.70;;;7.60;;
27618;SDS011;15039;50.830;4.730;2022-11-15T05:41:59;10.68;;;8.25;;
27618;SDS011;15039;50.830;4.730;2022-11-15T05:44:36;9.55;;;7.28;;
27618;SDS011;15039;50.830;4.730;2022-11-15T05:47:04;10.95;;;7.75;;
27618;SDS011;15039;50.830;4.730;2022-11-15T05:49:33;14.48;;;7.80;;
27618;SDS011;15039;50.830;4.730;2022-11-15T05:52:03;11.38;;;7.07;;
27618;SDS011;15039;50.830;4.730;2022-11-15T05:54:31;12.02;;;7.32;;
27618;SDS011;15039;50.830;4.730;2022-11-15T05:56:58;9.48;;;6.85;;
27618;SDS011;15039;50.830;4.730;2022-11-15T05:59:24;9.45;;;6.97;;
27618;SDS011;15039;50.830;4.730;2022-11-15T06:01:53;11.63;;;7.93;;
27618;SDS011;15039;50.830;4.730;2022-11-15T06:04:18;12.98;;;7.95;;
27618;SDS011;15039;50.830;4.730;2022-11-15T06:06:44;10.30;;;7.25;;
27618;SDS011;15039;50.830;4.730;2022-11-15T06:09:09;10.95;;;7.97;;
27618;SDS011;15039;50.830;4.730;2022-11-15T06:11:35;11.50;;;8.32;;
27618;SDS011;15039;50.830;4.730;2022-11-15T06:14:01;11.63;;;7.68;;
27618;SDS011;15039;50.830;4.730;2022-11-15T06:16:26;10.95;;;8.65;;
27618;SDS011;15039;50.830;4.730;2022-11-15T06:18:52;9.45;;;8.25;;
27618;SDS011;15039;50.830;4.730;2022-11-15T06:21:17;15.15;;;8.93;;
27618;SDS011;15039;50.830;4.730;2022-11-15T06:23:43;12.63;;;8.25;;
27618;SDS011;15039;50.830;4.730;2022-11-15T06:26:09;15.00;;;8.80;;
27618;SDS011;15039;50.830;4.730;2022-11-15T06:28:34;16.00;;;9.30;;
27618;SDS011;15039;50.830;4.730;2022-11-15T06:31:07;16.35;;;8.68;;
27618;SDS011;15039;50.830;4.730;2022-11-15T06:33:35;12.95;;;8.30;;
27618;SDS011;15039;50.830;4.730;2022-11-15T06:36:09;11.65;;;9.40;;
27618;SDS011;15039;50.830;4.730;2022-11-15T06:38:38;15.30;;;8.85;;
27618;SDS011;15039;50.830;4.730;2022-11-15T06:41:05;15.27;;;8.10;;
27618;SDS011;15039;50.830;4.730;2022-11-15T06:43:32;11.00;;;8.45;;
27618;SDS011;15039;50.830;4.730;2022-11-15T06:45:59;14.65;;;8.75;;
27618;SDS011;15039;50.830;4.730;2022-11-15T06:48:26;11.52;;;8.23;;
27618;SDS011;15039;50.830;4.730;2022-11-15T06:50:56;14.52;;;9.73;;
27618;SDS011;15039;50.830;4.730;2022-11-15T06:53:23;13.48;;;8.95;;
27618;SDS011;15039;50.830;4.730;2022-11-15T06:55:49;14.45;;;8.40;;
27618;SDS011;15039;50.830;4.730;2022-11-15T06:58:15;12.95;;;8.55;;
27618;SDS011;15039;50.830;4.730;2022-11-15T07:00:41;12.77;;;9.07;;
27618;SDS011;15039;50.830;4.730;2022-11-15T07:03:07;12.10;;;8.52;;
27618;SDS011;15039;50.830;4.730;2022-11-15T07:05:32;11.27;;;8.38;;
27618;SDS011;15039;50.830;4.730;2022-11-15T07:07:58;10.38;;;7.95;;
27618;SDS011;15039;50.830;4.730;2022-11-15T07:10:24;11.43;;;8.10;;
27618;SDS011;15039;50.830;4.730;2022-11-15T07:12:52;10.93;;;7.88;;
27618;SDS011;15039;50.830;4.730;2022-11-15T07:15:19;12.63;;;6.80;;
27618;SDS011;15039;50.830;4.730;2022-11-15T07:17:46;11.73;;;6.95;;
27618;SDS011;15039;50.830;4.730;2022-11-15T07:20:13;13.20;;;6.25;;
27618;SDS011;15039;50.830;4.730;2022-11-15T07:22:42;10.40;;;6.47;;
27618;SDS011;15039;50.830;4.730;2022-11-15T07:25:11;7.07;;;5.70;;
27618;SDS011;15039;50.830;4.730;2022-11-15T07:27:37;7.93;;;5.95;;
27618;SDS011;15039;50.830;4.730;2022-11-15T07:30:03;10.27;;;6.07;;
27618;SDS011;15039;50.830;4.730;2022-11-15T07:32:29;8.60;;;6.07;;
27618;SDS011;15039;50.830;4.730;2022-11-15T07:34:55;10.02;;;5.72;;
27618;SDS011;15039;50.830;4.730;2022-11-15T07:37:21;7.63;;;6.10;;
27618;SDS011;15039;50.830;4.730;2022-11-15T07:39:46;6.35;;;4.95;;
27618;SDS011;15039;50.830;4.730;2022-11-15T07:42:12;8.45;;;5.40;;
27618;SDS011;15039;50.830;4.730;2022-11-15T07:44:56;9.65;;;5.80;;
27618;SDS011;15039;50.830;4.730;2022-11-15T07:47:21;7.25;;;5.10;;
27618;SDS011;15039;50.830;4.730;2022-11-15T07:49:47;7.18;;;4.88;;
27618;SDS011;15039;50.830;4.730;2022-11-15T07:52:13;7.20;;;4.88;;
27618;SDS011;15039;50.830;4.730;2022-11-15T07:54:39;10.82;;;5.80;;
27618;SDS011;15039;50.830;4.730;2022-11-15T07:57:05;9.90;;;5.40;;
27618;SDS011;15039;50.830;4.730;2022-11-15T07:59:32;8.55;;;5.50;;
27618;SDS011;15039;50.830;4.730;2022-11-15T08:01:57;6.97;;;4.70;;
27618;SDS011;15039;50.830;4.730;2022-11-15T08:04:23;6.72;;;4.63;;
27618;SDS011;15039;50.830;4.730;2022-11-15T08:06:49;6.53;;;4.35;;
27618;SDS011;15039;50.830;4.730;2022-11-15T08:09:14;5.75;;;3.83;;
27618;SDS011;15039;50.830;4.730;2022-11-15T08:11:40;5.70;;;4.65;;
27618;SDS011;15039;50.830;4.730;2022-11-15T08:14:05;6.07;;;4.10;;
27618;SDS011;15039;50.830;4.730;2022-11-15T08:16:31;6.35;;;3.03;;
27618;SDS011;15039;50.830;4.730;2022-11-15T08:18:57;5.68;;;3.20;;
27618;SDS011;15039;50.830;4.730;2022-11-15T08:21:22;3.63;;;2.80;;
27618;SDS011;15039;50.830;4.730;2022-11-15T08:23:48;3.58;;;2.45;;
27618;SDS011;15039;50.830;4.730;2022-11-15T08:26:14;6.25;;;2.38;;
27618;SDS011;15039;50.830;4.730;2022-11-15T08:28:40;4.55;;;2.67;;
27618;SDS011;15039;50.830;4.730;2022-11-15T08:31:06;6.55;;;2.15;;
27618;SDS011;15039;50.830;4.730;2022-11-15T08:33:32;7.80;;;2.10;;
27618;SDS011;15039;50.830;4.730;2022-11-15T08:36:01;3.78;;;1.50;;
27618;SDS011;15039;50.830;4.730;2022-11-15T08:38:26;7.20;;;1.88;;
27618;SDS011;15039;50.830;4.730;2022-11-15T08:40:54;7.40;;;1.83;;
27618;SDS011;15039;50.830;4.730;2022-11-15T08:43:26;3.15;;;1.38;;
27618;SDS011;15039;50.830;4.730;2022-11-15T08:45:55;3.65;;;1.50;;
27618;SDS011;15039;50.830;4.730;2022-11-15T08:48:21;6.13;;;1.88;;
27618;SDS011;15039;50.830;4.730;2022-11-15T08:50:47;3.58;;;1.58;;
27618;SDS011;15039;50.830;4.730;2022-11-15T08:53:12;2.72;;;1.17;;
27618;SDS011;15039;50.830;4.730;2022-11-15T08:55:38;5.95;;;1.95;;
27618;SDS011;15039;50.830;4.730;2022-11-15T08:58:05;3.47;;;1.40;;
27618;SDS011;15039;50.830;4.730;2022-11-15T09:00:30;3.78;;;1.55;;
27618;SDS011;15039;50.830;4.730;2022-11-15T09:02:56;6.38;;;2.72;;
27618;SDS011;15039;50.830;4.730;2022-11-15T09:05:22;4.63;;;1.90;;
27618;SDS011;15039;50.830;4.730;2022-11-15T09:07:50;4.18;;;1.70;;
27618;SDS011;15039;50.830;4.730;2022-11-15T09:10:19;4.88;;;1.20;;
27618;SDS011;15039;50.830;4.730;2022-11-15T09:12:44;3.15;;;1.45;;
27618;SDS011;15039;50.830;4.730;2022-11-15T09:15:13;3.43;;;1.70;;
27618;SDS011;15039;50.830;4.730;2022-11-15T09:17:39;2.75;;;1.30;;
27618;SDS011;15039;50.830;4.730;2022-11-15T09:20:05;3.67;;;1.17;;
27618;SDS011;15039;50.830;4.730;2022-11-15T09:22:31;3.10;;;1.02;;
27618;SDS011;15039;50.830;4.730;2022-11-15T09:24:57;6.00;;;1.58;;
27618;SDS011;15039;50.830;4.730;2022-11-15T09:27:26;3.40;;;1.30;;
27618;SDS011;15039;50.830;4.730;2022-11-15T09:29:53;3.72;;;1.50;;
27618;SDS011;15039;50.830;4.730;2022-11-15T09:32:18;3.55;;;1.10;;
27618;SDS011;15039;50.830;4.730;2022-11-15T09:34:44;4.40;;;1.20;;
27618;SDS011;15039;50.830;4.730;2022-11-15T09:37:10;2.78;;;1.20;;
27618;SDS011;15039;50.830;4.730;2022-11-15T09:39:37;4.82;;;0.85;;
27618;SDS011;15039;50.830;4.730;2022-11-15T09:42:52;2.70;;;1.00;;
27618;SDS011;15039;50.830;4.730;2022-11-15T09:45:27;4.40;;;0.80;;
27618;SDS011;15039;50.830;4.730;2022-11-15T09:51:18;3.17;;;1.30;;
27618;SDS011;15039;50.830;4.730;2022-11-15T09:56:38;2.20;;;1.40;;
27618;SDS011;15039;50.830;4.730;2022-11-15T10:04:44;4.18;;;1.00;;
27618;SDS011;15039;50.830;4.730;2022-11-15T10:07:22;2.63;;;1.02;;
27618;SDS011;15039;50.830;4.730;2022-11-15T10:12:21;4.20;;;0.98;;
27618;SDS011;15039;50.830;4.730;2022-11-15T10:14:48;2.97;;;1.10;;
27618;SDS011;15039;50.830;4.730;2022-11-15T10:17:23;5.68;;;1.23;;
27618;SDS011;15039;50.830;4.730;2022-11-15T10:20:17;3.92;;;0.95;;
27618;SDS011;15039;50.830;4.730;2022-11-15T10:25:19;4.50;;;1.70;;
27618;SDS011;15039;50.830;4.730;2022-11-15T10:27:50;2.50;;;1.10;;
27618;SDS011;15039;50.830;4.730;2022-11-15T10:30:22;4.35;;;1.58;;
27618;SDS011;15039;50.830;4.730;2022-11-15T10:32:49;2.42;;;0.95;;
27618;SDS011;15039;50.830;4.730;2022-11-15T10:35:28;4.28;;;1.30;;
27618;SDS011;15039;50.830;4.730;2022-11-15T10:38:04;3.05;;;1.00;;
27618;SDS011;15039;50.830;4.730;2022-11-15T10:40:34;3.35;;;1.00;;
27618;SDS011;15039;50.830;4.730;2022-11-15T10:45:36;3.60;;;1.58;;
27618;SDS011;15039;50.830;4.730;2022-11-15T10:50:37;1.55;;;0.90;;
27618;SDS011;15039;50.830;4.730;2022-11-15T10:53:21;2.70;;;1.13;;
27618;SDS011;15039;50.830;4.730;2022-11-15T10:55:47;3.40;;;1.27;;
27618;SDS011;15039;50.830;4.730;2022-11-15T10:58:29;3.13;;;1.25;;
27618;SDS011;15039;50.830;4.730;2022-11-15T11:01:13;2.80;;;1.02;;
27618;SDS011;15039;50.830;4.730;2022-11-15T11:06:26;1.52;;;0.88;;
27618;SDS011;15039;50.830;4.730;2022-11-15T11:09:02;2.17;;;0.90;;
27618;SDS011;15039;50.830;4.730;2022-11-15T11:11:43;4.40;;;1.15;;
27618;SDS011;15039;50.830;4.730;2022-11-15T11:16:48;3.03;;;1.20;;
27618;SDS011;15039;50.830;4.730;2022-11-15T11:24:25;4.28;;;0.95;;
27618;SDS011;15039;50.830;4.730;2022-11-15T11:27:39;3.65;;;0.98;;
27618;SDS011;15039;50.830;4.730;2022-11-15T11:30:18;3.77;;;1.33;;
27618;SDS011;15039;50.830;4.730;2022-11-15T11:33:09;6.90;;;1.17;;
27618;SDS011;15039;50.830;4.730;2022-11-15T11:42:02;2.10;;;0.63;;
27618;SDS011;15039;50.830;4.730;2022-11-15T11:44:17;2.40;;;0.80;;
27618;SDS011;15039;50.830;4.730;2022-11-15T11:54:58;1.83;;;0.80;;
27618;SDS011;15039;50.830;4.730;2022-11-15T12:03:52;4.60;;;1.00;;
27618;SDS011;15039;50.830;4.730;2022-11-15T12:09:29;3.15;;;0.95;;
27618;SDS011;15039;50.830;4.730;2022-11-15T12:12:39;1.63;;;0.80;;
27618;SDS011;15039;50.830;4.730;2022-11-15T12:17:41;4.03;;;0.88;;
27618;SDS011;15039;50.830;4.730;2022-11-15T12:20:18;1.55;;;0.80;;
27618;SDS011;15039;50.830;4.730;2022-11-15T12:22:53;3.63;;;0.90;;
27618;SDS011;15039;50.830;4.730;2022-11-15T12:25:36;2.53;;;0.77;;
27618;SDS011;15039;50.830;4.730;2022-11-15T12:28:19;3.50;;;0.90;;
27618;SDS011;15039;50.830;4.730;2022-11-15T12:31:00;3.63;;;0.95;;
27618;SDS011;15039;50.830;4.730;2022-11-15T12:33:30;3.13;;;1.10;;
27618;SDS011;15039;50.830;4.730;2022-11-15T12:36:43;2.92;;;0.93;;
27618;SDS011;15039;50.830;4.730;2022-11-15T12:41:31;1.35;;;0.75;;
27618;SDS011;15039;50.830;4.730;2022-11-15T12:44:01;3.47;;;0.93;;
27618;SDS011;15039;50.830;4.730;2022-11-15T12:54:47;2.92;;;0.80;;
27618;SDS011;15039;50.830;4.730;2022-11-15T13:02:24;1.17;;;0.77;;
27618;SDS011;15039;50.830;4.730;2022-11-15T13:04:52;5.30;;;1.20;;
27618;SDS011;15039;50.830;4.730;2022-11-15T13:10:01;3.05;;;0.70;;
27618;SDS011;15039;50.830;4.730;2022-11-15T13:17:54;2.53;;;0.85;;
27618;SDS011;15039;50.830;4.730;2022-11-15T13:23:00;2.08;;;0.98;;
27618;SDS011;15039;50.830;4.730;2022-11-15T13:28:21;1.85;;;0.70;;
27618;SDS011;15039;50.830;4.730;2022-11-15T13:31:01;1.50;;;0.65;;
27618;SDS011;15039;50.830;4.730;2022-11-15T13:33:46;1.42;;;0.75;;
27618;SDS011;15039;50.830;4.730;2022-11-15T13:36:15;2.60;;;0.57;;
27618;SDS011;15039;50.830;4.730;2022-11-15T13:38:45;0.82;;;0.70;;
27618;SDS011;15039;50.830;4.730;2022-11-15T13:41:49;3.92;;;0.73;;
27618;SDS011;15039;50.830;4.730;2022-11-15T13:44:20;3.13;;;0.85;;
27618;SDS011;15039;50.830;4.730;2022-11-15T13:46:47;0.85;;;0.63;;
27618;SDS011;15039;50.830;4.730;2022-11-15T13:49:13;2.17;;;0.80;;
27618;SDS011;15039;50.830;4.730;2022-11-15T13:51:43;2.53;;;0.80;;
27618;SDS011;15039;50.830;4.730;2022-11-15T13:56:44;2.08;;;0.80;;
27618;SDS011;15039;50.830;4.730;2022-11-15T13:59:15;1.98;;;0.70;;
27618;SDS011;15039;50.830;4.730;2022-11-15T14:01:50;1.15;;;0.52;;
27618;SDS011;15039;50.830;4.730;2022-11-15T14:04:18;2.25;;;1.35;;
27618;SDS011;15039;50.830;4.730;2022-11-15T14:06:51;2.10;;;0.70;;
27618;SDS011;15039;50.830;4.730;2022-11-15T14:11:51;2.60;;;0.90;;
27618;SDS011;15039;50.830;4.730;2022-11-15T14:14:19;1.10;;;0.80;;
27618;SDS011;15039;50.830;4.730;2022-11-15T14:16:51;0.98;;;0.55;;
27618;SDS011;15039;50.830;4.730;2022-11-15T14:27:20;3.47;;;0.90;;
27618;SDS011;15039;50.830;4.730;2022-11-15T14:29:46;0.90;;;0.90;;
27618;SDS011;15039;50.830;4.730;2022-11-15T14:32:15;2.30;;;1.15;;
27618;SDS011;15039;50.830;4.730;2022-11-15T14:34:41;2.30;;;0.93;;
27618;SDS011;15039;50.830;4.730;2022-11-15T14:37:11;1.13;;;1.00;;
27618;SDS011;15039;50.830;4.730;2022-11-15T14:39:49;2.20;;;0.70;;
27618;SDS011;15039;50.830;4.730;2022-11-15T14:42:15;1.63;;;0.70;;
27618;SDS011;15039;50.830;4.730;2022-11-15T14:44:41;0.57;;;0.57;;
27618;SDS011;15039;50.830;4.730;2022-11-15T14:47:06;1.52;;;0.85;;
27618;SDS011;15039;50.830;4.730;2022-11-15T14:49:32;1.85;;;0.82;;
27618;SDS011;15039;50.830;4.730;2022-11-15T14:51:57;1.08;;;0.75;;
27618;SDS011;15039;50.830;4.730;2022-11-15T14:54:23;1.92;;;1.05;;
27618;SDS011;15039;50.830;4.730;2022-11-15T14:56:49;0.80;;;0.80;;
27618;SDS011;15039;50.830;4.730;2022-11-15T14:59:14;1.05;;;0.85;;
27618;SDS011;15039;50.830;4.730;2022-11-15T15:01:40;1.63;;;0.80;;
27618;SDS011;15039;50.830;4.730;2022-11-15T15:04:06;1.38;;;1.10;;
27618;SDS011;15039;50.830;4.730;2022-11-15T15:06:31;0.90;;;0.90;;
27618;SDS011;15039;50.830;4.730;2022-11-15T15:08:57;1.35;;;0.90;;
27618;SDS011;15039;50.830;4.730;2022-11-15T15:11:23;1.85;;;1.02;;
27618;SDS011;15039;50.830;4.730;2022-11-15T15:13:53;2.22;;;1.10;;
27618;SDS011;15039;50.830;4.730;2022-11-15T15:16:21;1.30;;;1.10;;
27618;SDS011;15039;50.830;4.730;2022-11-15T15:18:48;0.93;;;0.90;;
27618;SDS011;15039;50.830;4.730;2022-11-15T15:21:23;1.00;;;0.88;;
27618;SDS011;15039;50.830;4.730;2022-11-15T15:23:51;1.67;;;0.93;;
27618;SDS011;15039;50.830;4.730;2022-11-15T15:26:19;2.43;;;1.40;;
27618;SDS011;15039;50.830;4.730;2022-11-15T15:28:45;4.95;;;1.38;;
27618;SDS011;15039;50.830;4.730;2022-11-15T15:31:11;2.38;;;1.27;;
27618;SDS011;15039;50.830;4.730;2022-11-15T15:33:36;1.70;;;1.42;;
27618;SDS011;15039;50.830;4.730;2022-11-15T15:36:02;1.90;;;1.20;;
27618;SDS011;15039;50.830;4.730;2022-11-15T15:38:28;2.65;;;1.30;;
27618;SDS011;15039;50.830;4.730;2022-11-15T15:40:54;2.45;;;1.70;;
27618;SDS011;15039;50.830;4.730;2022-11-15T15:43:20;1.40;;;1.30;;
27618;SDS011;15039;50.830;4.730;2022-11-15T15:45:45;3.17;;;1.63;;
27618;SDS011;15039;50.830;4.730;2022-11-15T15:48:15;2.38;;;1.30;;
27618;SDS011;15039;50.830;4.730;2022-11-15T15:50:41;3.10;;;1.50;;
27618;SDS011;15039;50.830;4.730;2022-11-15T15:53:08;2.40;;;1.75;;
27618;SDS011;15039;50.830;4.730;2022-11-15T15:55:38;1.85;;;1.20;;
27618;SDS011;15039;50.830;4.730;2022-11-15T15:58:04;2.50;;;1.30;;
27618;SDS011;15039;50.830;4.730;2022-11-15T16:00:31;2.28;;;1.40;;
27618;SDS011;15039;50.830;4.730;2022-11-15T16:02:59;1.80;;;1.65;;
27618;SDS011;15039;50.830;4.730;2022-11-15T16:05:25;2.53;;;1.58;;
27618;SDS011;15039;50.830;4.730;2022-11-15T16:07:51;3.75;;;1.52;;
27618;SDS011;15039;50.830;4.730;2022-11-15T16:12:52;4.28;;;1.70;;
27618;SDS011;15039;50.830;4.730;2022-11-15T16:15:19;2.17;;;1.00;;
27618;SDS011;15039;50.830;4.730;2022-11-15T16:17:50;2.15;;;1.17;;
27618;SDS011;15039;50.830;4.730;2022-11-15T16:23:00;1.80;;;1.40;;
27618;SDS011;15039;50.830;4.730;2022-11-15T16:25:27;1.27;;;1.05;;
27618;SDS011;15039;50.830;4.730;2022-11-15T16:27:53;3.30;;;1.65;;
27618;SDS011;15039;50.830;4.730;2022-11-15T16:30:20;1.65;;;1.33;;
27618;SDS011;15039;50.830;4.730;2022-11-15T16:32:46;5.38;;;1.52;;
27618;SDS011;15039;50.830;4.730;2022-11-15T16:35:13;1.90;;;1.20;;
27618;SDS011;15039;50.830;4.730;2022-11-15T16:37:40;2.10;;;1.10;;
27618;SDS011;15039;50.830;4.730;2022-11-15T16:42:49;2.85;;;1.45;;
27618;SDS011;15039;50.830;4.730;2022-11-15T16:45:15;2.03;;;1.40;;
27618;SDS011;15039;50.830;4.730;2022-11-15T16:47:41;3.75;;;1.63;;
27618;SDS011;15039;50.830;4.730;2022-11-15T16:50:10;3.65;;;1.52;;
27618;SDS011;15039;50.830;4.730;2022-11-15T16:52:51;2.33;;;1.95;;
27618;SDS011;15039;50.830;4.730;2022-11-15T16:55:18;2.10;;;1.85;;
27618;SDS011;15039;50.830;4.730;2022-11-15T16:57:45;1.90;;;1.65;;
27618;SDS011;15039;50.830;4.730;2022-11-15T17:00:11;3.13;;;1.65;;
27618;SDS011;15039;50.830;4.730;2022-11-15T17:02:40;3.65;;;1.77;;
27618;SDS011;15039;50.830;4.730;2022-11-15T17:05:07;2.95;;;2.38;;
27618;SDS011;15039;50.830;4.730;2022-11-15T17:07:33;7.20;;;5.68;;
27618;SDS011;15039;50.830;4.730;2022-11-15T17:09:59;3.35;;;2.25;;
27618;SDS011;15039;50.830;4.730;2022-11-15T17:12:24;2.70;;;2.05;;
27618;SDS011;15039;50.830;4.730;2022-11-15T17:14:50;2.72;;;1.60;;
27618;SDS011;15039;50.830;4.730;2022-11-15T17:17:16;2.78;;;1.88;;
27618;SDS011;15039;50.830;4.730;2022-11-15T17:19:41;2.30;;;2.10;;